createdAt,value
2022-12-07T00:28:55.493Z,16.81
2022-12-07T00:29:59.796Z,21.69
2022-12-07T00:31:09.777Z,22.81
2022-12-07T00:32:13.778Z,19.80
2022-12-07T00:33:17.665Z,16.06
2022-12-07T00:34:22.772Z,18.69
2022-12-07T00:35:26.733Z,24.31
2022-12-07T00:36:30.767Z,16.94
2022-12-07T00:37:34.781Z,22.13
2022-12-07T00:38:40.187Z,15.56
2022-12-07T00:39:44.266Z,21.00
2022-12-07T00:40:59.459Z,20.25
2022-12-07T00:42:03.555Z,16.81
2022-12-07T00:43:07.467Z,9.38
2022-12-07T00:44:11.561Z,17.00
2022-12-07T00:45:15.586Z,17.62
2022-12-07T00:46:22.101Z,15.88
2022-12-07T00:47:26.367Z,21.87
2022-12-07T00:48:30.911Z,16.31
2022-12-07T00:49:34.832Z,18.56
2022-12-07T00:50:38.886Z,18.75
2022-12-07T00:51:42.784Z,16.87
2022-12-07T00:52:46.738Z,14.81
2022-12-07T00:53:50.886Z,14.25
2022-12-07T00:54:54.837Z,15.38
2022-12-07T00:55:58.892Z,18.19
2022-12-07T00:57:02.856Z,20.31
2022-12-07T00:58:07.372Z,21.31
2022-12-07T00:59:14.163Z,17.19
2022-12-07T01:00:18.235Z,22.27
2022-12-07T01:01:22.738Z,20.81
2022-12-07T01:02:26.712Z,20.37
2022-12-07T01:03:37.175Z,23.87
2022-12-07T01:04:41.209Z,21.12
2022-12-07T01:05:56.301Z,18.12
2022-12-07T01:06:59.557Z,9.63
2022-12-07T01:08:04.161Z,17.12
2022-12-07T01:09:08.302Z,16.31
2022-12-07T01:10:13.042Z,22.75
2022-12-07T01:11:20.139Z,20.60
2022-12-07T01:12:24.077Z,19.12
2022-12-07T01:13:28.006Z,22.06
2022-12-07T01:14:31.956Z,21.50
2022-12-07T01:15:35.803Z,21.94
2022-12-07T01:16:40.569Z,19.06
2022-12-07T01:17:44.511Z,26.19
2022-12-07T01:18:50.919Z,24.12
2022-12-07T01:19:55.009Z,18.69
2022-12-07T01:21:04.557Z,29.87
2022-12-07T01:22:08.560Z,27.44
2022-12-07T01:23:12.511Z,30.60
2022-12-07T01:24:16.431Z,23.31
2022-12-07T01:25:20.411Z,17.19
2022-12-07T01:26:25.579Z,23.07
2022-12-07T01:27:29.582Z,20.19
2022-12-07T01:28:33.749Z,17.87
2022-12-07T01:29:37.692Z,21.94
2022-12-07T01:30:41.767Z,19.60
2022-12-07T01:31:45.663Z,20.20
2022-12-07T01:32:49.592Z,18.56
2022-12-07T01:33:55.797Z,25.47
2022-12-07T01:34:59.802Z,17.87
2022-12-07T01:36:18.400Z,18.62
2022-12-07T01:37:22.471Z,20.56
2022-12-07T01:38:26.435Z,12.69
2022-12-07T01:39:30.399Z,20.50
2022-12-07T01:40:34.542Z,20.47
2022-12-07T01:41:40.995Z,20.00
2022-12-07T01:42:45.044Z,21.19
2022-12-07T01:44:17.571Z,19.62
2022-12-07T01:45:39.088Z,19.19
2022-12-07T01:46:46.588Z,20.37
2022-12-07T01:47:53.443Z,19.25
2022-12-07T01:48:57.420Z,19.50
2022-12-07T01:50:01.645Z,17.25
2022-12-07T01:51:09.064Z,21.50
2022-12-07T01:52:18.720Z,18.81
2022-12-07T01:53:27.284Z,18.25
2022-12-07T01:54:32.261Z,20.47
2022-12-07T01:55:38.895Z,17.19
2022-12-07T01:56:45.879Z,20.31
2022-12-07T01:57:53.298Z,18.00
2022-12-07T01:59:00.294Z,19.19
2022-12-07T02:00:07.015Z,19.19
2022-12-07T02:01:11.149Z,19.31
2022-12-07T02:02:30.215Z,20.56
2022-12-07T02:03:39.883Z,12.75
2022-12-07T06:17:20.647Z,22.13
2022-12-07T06:18:24.661Z,22.33
2022-12-07T06:19:28.659Z,20.69
2022-12-07T06:20:32.588Z,21.69
2022-12-07T06:21:36.675Z,17.75
2022-12-07T06:22:40.892Z,19.12
2022-12-07T06:23:46.348Z,19.50
2022-12-07T06:24:51.881Z,30.33
2022-12-07T06:25:58.827Z,22.75
2022-12-07T06:27:04.781Z,23.31
2022-12-07T06:28:08.839Z,23.19
2022-12-07T06:29:14.090Z,21.87
2022-12-07T06:30:18.278Z,24.25
2022-12-07T06:31:22.547Z,21.50
2022-12-07T06:32:33.911Z,18.12
2022-12-07T06:33:39.623Z,21.44
2022-12-07T06:34:43.686Z,22.44
2022-12-07T06:35:47.542Z,22.56
2022-12-07T06:36:52.535Z,21.06
2022-12-07T06:37:56.487Z,22.60
2022-12-07T06:39:00.396Z,22.00
2022-12-07T06:40:05.118Z,18.44
2022-12-07T06:41:09.297Z,24.31
2022-12-07T06:42:13.227Z,24.19
2022-12-07T06:43:17.235Z,16.50
2022-12-07T06:44:22.284Z,21.56
2022-12-07T06:45:26.235Z,25.31
2022-12-07T06:46:30.346Z,20.00
2022-12-07T06:47:41.989Z,23.93
2022-12-07T06:48:43.245Z,20.50
2022-12-07T06:49:47.199Z,25.25
2022-12-07T06:50:54.967Z,22.56
2022-12-07T06:51:56.944Z,20.62
2022-12-07T06:53:01.078Z,22.69
2022-12-07T06:54:05.739Z,21.31
2022-12-07T06:55:09.911Z,22.50
2022-12-07T06:56:14.151Z,24.50
2022-12-07T06:57:18.144Z,30.88
2022-12-07T06:58:22.262Z,24.37
2022-12-07T06:59:26.190Z,23.87
2022-12-07T07:00:30.576Z,24.19
2022-12-07T07:01:35.754Z,29.19
2022-12-07T07:02:39.755Z,25.75
2022-12-07T07:03:44.637Z,21.94
2022-12-07T07:04:48.529Z,21.87
2022-12-07T07:05:52.665Z,20.56
2022-12-07T07:06:59.968Z,25.12
2022-12-07T07:08:21.955Z,18.94
2022-12-07T07:09:08.716Z,24.25
2022-12-07T07:10:13.268Z,21.56
2022-12-07T07:11:17.317Z,28.62
2022-12-07T07:12:23.431Z,24.47
2022-12-07T07:13:27.678Z,26.69
2022-12-07T07:14:31.619Z,27.60
2022-12-07T07:15:36.096Z,26.00
2022-12-07T07:16:40.145Z,24.87
2022-12-07T07:17:44.186Z,27.00
2022-12-07T07:18:48.149Z,21.25
2022-12-07T07:19:52.121Z,25.37
2022-12-07T07:20:56.746Z,28.12
2022-12-07T07:22:00.699Z,26.44
2022-12-07T07:23:04.736Z,24.37
2022-12-07T07:24:08.902Z,27.44
2022-12-07T07:25:12.974Z,20.81
2022-12-07T07:26:22.827Z,24.00
2022-12-07T07:27:22.775Z,26.87
2022-12-07T07:28:26.636Z,27.31
2022-12-07T07:29:30.621Z,27.56
2022-12-07T07:30:34.809Z,26.44
2022-12-07T07:31:38.915Z,29.75
2022-12-07T07:32:42.899Z,23.81
2022-12-07T07:33:48.907Z,26.75
2022-12-07T07:34:52.950Z,25.56
2022-12-07T07:35:56.946Z,28.25
2022-12-07T07:37:01.002Z,29.25
2022-12-07T07:38:05.025Z,28.93
2022-12-07T07:39:09.060Z,25.31
2022-12-07T07:40:13.251Z,29.40
2022-12-07T07:41:17.321Z,30.00
2022-12-07T07:42:21.335Z,30.00
2022-12-07T07:43:25.293Z,29.06
2022-12-07T07:44:34.824Z,28.31
2022-12-07T07:45:35.034Z,32.38
2022-12-07T07:46:40.574Z,31.37
2022-12-07T07:47:44.601Z,29.00
2022-12-07T07:48:48.675Z,32.40
2022-12-07T07:49:52.614Z,30.87
2022-12-07T07:50:56.646Z,25.88
2022-12-07T07:52:00.639Z,30.00
2022-12-07T07:53:04.734Z,28.94
2022-12-07T07:54:08.689Z,27.13
2022-12-07T07:55:13.940Z,33.60
2022-12-07T07:56:17.980Z,30.12
2022-12-07T07:57:21.992Z,31.87
2022-12-07T07:58:25.944Z,29.25
2022-12-07T07:59:29.803Z,27.37
2022-12-07T08:00:33.844Z,30.31
2022-12-07T08:01:37.982Z,32.69
2022-12-07T08:02:42.771Z,33.44
2022-12-07T08:03:50.031Z,32.06
2022-12-07T08:04:53.917Z,34.50
2022-12-07T08:05:57.828Z,38.88
2022-12-07T08:07:01.766Z,44.33
2022-12-07T08:08:05.879Z,35.00
2022-12-07T08:09:10.250Z,31.12
2022-12-07T08:10:16.199Z,32.67
2022-12-07T08:11:20.138Z,33.81
2022-12-07T08:12:27.034Z,32.56
2022-12-07T08:13:31.897Z,35.38
2022-12-07T08:14:36.338Z,37.53
2022-12-07T08:15:42.855Z,32.63
2022-12-07T08:16:46.933Z,35.81
2022-12-07T08:17:50.827Z,32.31
2022-12-07T08:18:57.591Z,32.50
2022-12-07T08:20:01.968Z,36.75
2022-12-07T08:21:07.024Z,32.94
2022-12-07T08:22:11.110Z,35.13
2022-12-07T08:23:15.140Z,34.60
2022-12-07T08:24:19.196Z,35.44
2022-12-07T08:25:23.615Z,32.25
2022-12-07T08:26:27.538Z,36.00
2022-12-07T08:27:31.555Z,35.63
2022-12-07T08:28:36.188Z,33.38
2022-12-07T08:29:40.128Z,34.50
2022-12-07T08:30:44.202Z,28.06
2022-12-07T08:31:48.258Z,34.50
2022-12-07T08:32:52.345Z,37.80
2022-12-07T08:33:57.059Z,33.80
2022-12-07T08:35:01.006Z,36.75
2022-12-07T08:36:07.967Z,38.25
2022-12-07T08:37:13.588Z,32.56
2022-12-07T08:38:20.397Z,33.13
2022-12-07T08:39:33.266Z,34.88
2022-12-07T08:40:33.183Z,37.20
2022-12-07T08:41:37.221Z,34.56
2022-12-07T08:42:41.574Z,31.87
2022-12-07T08:43:45.464Z,43.75
2022-12-07T08:44:49.448Z,34.19
2022-12-07T08:46:05.284Z,40.47
2022-12-07T08:47:10.826Z,39.75
2022-12-07T08:48:19.182Z,35.07
2022-12-07T08:49:28.969Z,37.00
2022-12-07T08:50:35.388Z,37.50
2022-12-07T08:51:41.347Z,37.73
2022-12-07T08:52:46.274Z,35.44
2022-12-07T08:53:52.223Z,33.00
2022-12-07T08:54:56.283Z,34.31
2022-12-07T08:56:00.392Z,36.07
2022-12-07T08:57:08.252Z,39.44
2022-12-07T08:58:13.933Z,38.38
2022-12-07T08:59:20.583Z,37.13
2022-12-07T09:00:24.779Z,46.80
2022-12-07T09:01:29.537Z,33.94
2022-12-07T09:02:33.720Z,40.00
2022-12-07T09:03:37.782Z,36.06
2022-12-07T09:04:41.692Z,41.19
2022-12-07T09:05:45.850Z,35.56
2022-12-07T09:06:52.941Z,38.38
2022-12-07T09:07:59.927Z,37.13
2022-12-07T09:09:05.103Z,36.13
2022-12-07T09:10:09.293Z,36.94
2022-12-07T09:11:13.351Z,35.25
2022-12-07T09:12:17.478Z,36.20
2022-12-07T09:13:21.514Z,36.44
2022-12-07T09:14:25.906Z,38.07
2022-12-07T09:15:31.015Z,34.56
2022-12-07T09:16:36.663Z,34.56
2022-12-07T09:17:42.351Z,34.50
2022-12-07T09:18:46.487Z,37.87
2022-12-07T09:19:50.487Z,36.53
2022-12-07T09:20:54.549Z,37.44
2022-12-07T09:21:58.524Z,35.81
2022-12-07T09:23:02.545Z,38.75
2022-12-07T09:24:06.880Z,38.69
2022-12-07T09:25:10.898Z,36.00
2022-12-07T09:26:16.437Z,37.19
2022-12-07T09:27:20.365Z,36.38
2022-12-07T09:28:24.312Z,39.00
2022-12-07T09:29:28.268Z,34.50
2022-12-07T09:30:32.490Z,37.80
2022-12-07T09:31:40.536Z,39.07
2022-12-07T09:32:44.622Z,39.00
2022-12-07T09:34:17.304Z,35.44
2022-12-07T09:35:21.999Z,35.40
2022-12-07T09:36:26.221Z,38.06
2022-12-07T09:37:30.334Z,36.13
2022-12-07T09:38:34.440Z,38.87
2022-12-07T09:39:47.932Z,40.44
2022-12-07T09:40:50.157Z,39.06
2022-12-07T09:41:54.369Z,40.12
2022-12-07T09:42:58.554Z,39.33
2022-12-07T09:45:29.485Z,35.31
2022-12-07T09:46:37.002Z,31.87
2022-12-07T09:47:41.064Z,35.88
2022-12-07T09:48:45.853Z,35.94
2022-12-07T09:49:49.948Z,29.33
2022-12-07T09:50:57.035Z,36.40
2022-12-07T09:52:15.734Z,36.88
2022-12-07T09:53:22.776Z,38.38
2022-12-07T09:54:26.951Z,34.94
2022-12-07T09:55:32.473Z,37.56
2022-12-07T09:56:36.875Z,36.25
2022-12-07T09:57:40.971Z,37.50
2022-12-07T09:58:46.292Z,37.25
2022-12-07T09:59:50.366Z,40.19
2022-12-07T10:01:05.629Z,34.44
2022-12-07T10:02:27.630Z,38.27
2022-12-07T10:03:31.890Z,37.75
2022-12-07T10:04:38.985Z,36.44
2022-12-07T10:05:51.950Z,36.50
2022-12-07T10:06:58.607Z,36.75
2022-12-07T10:08:02.788Z,41.07
2022-12-07T10:09:12.274Z,32.81
2022-12-07T10:10:22.231Z,38.81
2022-12-07T10:11:26.179Z,35.81
2022-12-07T10:12:30.180Z,6.47
2022-12-07T10:13:48.843Z,37.25
2022-12-07T10:15:08.186Z,36.93
2022-12-07T10:16:27.577Z,35.88
2022-12-07T10:17:37.394Z,38.81
2022-12-07T10:18:42.959Z,38.38
2022-12-07T10:19:47.093Z,39.38
2022-12-07T10:20:52.866Z,38.50
2022-12-07T10:22:05.709Z,38.56
2022-12-07T10:23:12.690Z,41.00
2022-12-07T10:24:16.680Z,35.00
2022-12-07T10:25:22.463Z,34.25
2022-12-07T10:26:38.067Z,39.31
2022-12-07T10:27:42.095Z,38.93
2022-12-07T10:28:46.174Z,39.07
2022-12-07T10:29:54.166Z,36.25
2022-12-07T10:31:03.906Z,38.13
2022-12-07T10:32:16.752Z,37.69
2022-12-07T10:33:32.960Z,39.33
2022-12-07T10:34:42.661Z,40.56
2022-12-07T10:35:47.262Z,35.13
2022-12-07T10:36:51.893Z,41.00
2022-12-07T10:37:58.249Z,35.56
2022-12-07T10:39:14.385Z,40.73
2022-12-07T10:40:32.817Z,38.00
2022-12-07T10:41:36.839Z,38.67
2022-12-07T10:42:40.802Z,39.50
2022-12-07T10:43:50.190Z,40.12
2022-12-07T10:45:11.605Z,39.00
2022-12-07T10:46:24.437Z,38.94
2022-12-07T10:47:40.037Z,41.06
2022-12-07T10:48:56.025Z,40.19
2022-12-07T10:50:20.768Z,39.13
2022-12-07T10:51:42.277Z,38.75
2022-12-07T10:53:10.059Z,39.44
2022-12-07T10:54:22.733Z,36.33
2022-12-07T10:57:07.170Z,41.80
2022-12-07T10:58:30.552Z,36.81
2022-12-07T10:59:40.288Z,40.69
2022-12-07T11:01:06.869Z,40.81
2022-12-07T11:02:22.652Z,41.25
2022-12-07T11:03:58.704Z,41.75
2022-12-07T11:05:14.555Z,43.87
2022-12-07T11:06:30.471Z,41.13
2022-12-07T11:07:45.796Z,39.69
2022-12-07T11:08:52.745Z,40.81
2022-12-07T11:10:08.750Z,43.31
2022-12-07T11:11:23.290Z,40.25
2022-12-07T11:12:35.737Z,41.13
2022-12-07T11:14:01.840Z,38.60
2022-12-07T11:15:14.568Z,39.33
2022-12-07T11:16:27.649Z,45.44
2022-12-07T11:17:54.432Z,43.87
2022-12-07T11:19:10.349Z,40.73
2022-12-07T11:20:23.050Z,40.81
2022-12-07T11:21:38.939Z,40.12
2022-12-07T11:23:05.191Z,41.73
2022-12-07T11:24:17.795Z,40.80
2022-12-07T11:25:41.411Z,35.87
2022-12-07T11:27:06.695Z,40.40
2022-12-07T11:28:19.315Z,41.53
2022-12-07T11:29:32.330Z,39.38
2022-12-07T11:30:39.368Z,40.88
2022-12-07T11:32:01.189Z,42.67
2022-12-07T11:33:29.122Z,38.69
2022-12-07T11:34:38.734Z,38.44
2022-12-07T11:35:57.440Z,41.19
2022-12-07T11:37:04.429Z,40.19
2022-12-07T11:38:18.949Z,42.44
2022-12-07T11:39:32.056Z,40.31
2022-12-07T11:40:38.368Z,41.73
2022-12-07T11:41:44.134Z,39.80
2022-12-07T11:42:56.650Z,41.00
2022-12-07T11:44:27.527Z,42.62
2022-12-07T11:45:35.400Z,44.50
2022-12-07T11:46:45.172Z,44.40
2022-12-07T11:47:54.811Z,37.31
2022-12-07T11:49:10.624Z,40.67
2022-12-07T11:50:38.670Z,41.53
2022-12-07T11:51:44.347Z,44.00
2022-12-07T11:52:51.295Z,42.44
2022-12-07T11:53:58.301Z,42.25
2022-12-07T11:55:05.467Z,45.31
2022-12-07T11:56:24.218Z,43.60
2022-12-07T11:57:39.991Z,44.06
2022-12-07T11:58:58.518Z,43.87
2022-12-07T12:00:05.836Z,44.87
2022-12-07T12:01:33.755Z,41.06
2022-12-07T12:02:49.715Z,41.75
2022-12-07T12:03:56.788Z,43.00
2022-12-07T12:05:06.335Z,41.73
2022-12-07T12:06:10.711Z,42.56
2022-12-07T12:09:40.007Z,39.40
2022-12-07T12:10:49.413Z,40.93
2022-12-07T12:14:49.249Z,41.63
2022-12-07T12:16:07.603Z,41.93
2022-12-07T12:17:14.630Z,36.19
2022-12-07T12:18:30.252Z,40.93
2022-12-07T12:19:47.765Z,41.53
2022-12-07T12:21:00.523Z,42.69
2022-12-07T12:22:22.706Z,43.19
2022-12-07T12:23:35.694Z,41.44
2022-12-07T12:24:42.454Z,41.93
2022-12-07T12:25:52.371Z,41.87
2022-12-07T12:29:56.857Z,44.27
2022-12-07T12:31:12.875Z,37.93
2022-12-07T12:32:25.434Z,40.88
2022-12-07T12:33:32.311Z,43.19
2022-12-07T12:35:03.872Z,43.75
2022-12-07T12:36:21.383Z,39.44
2022-12-07T12:37:37.141Z,43.20
2022-12-07T12:38:52.552Z,43.94
2022-12-07T12:40:17.189Z,40.50
2022-12-07T12:41:42.214Z,44.75
2022-12-07T12:42:48.560Z,41.27
2022-12-07T12:43:54.230Z,38.81
2022-12-07T12:45:25.523Z,40.60
2022-12-07T12:46:35.464Z,38.88
2022-12-07T12:47:45.462Z,38.13
2022-12-07T12:48:49.477Z,36.44
2022-12-07T12:50:14.333Z,44.33
2022-12-07T12:51:37.526Z,40.56
2022-12-07T12:52:47.338Z,41.60
2022-12-07T12:53:50.568Z,41.67
2022-12-07T12:55:00.876Z,40.12
2022-12-07T12:56:26.176Z,41.37
2022-12-07T12:57:32.427Z,40.88
2022-12-07T12:58:40.009Z,41.56
2022-12-07T12:59:58.725Z,38.63
2022-12-07T13:01:28.308Z,41.81
2022-12-07T13:02:41.120Z,41.87
2022-12-07T13:03:53.651Z,42.94
2022-12-07T13:05:09.196Z,42.93
2022-12-07T13:06:25.205Z,46.53
2022-12-07T13:07:50.350Z,43.69
2022-12-07T13:09:00.315Z,42.94
2022-12-07T13:10:05.251Z,31.13
2022-12-07T13:11:32.723Z,44.25
2022-12-07T13:12:37.158Z,41.40
2022-12-07T13:13:41.110Z,43.27
2022-12-07T13:14:56.841Z,42.50
2022-12-07T13:16:12.934Z,39.56
2022-12-07T13:17:38.104Z,41.37
2022-12-07T13:18:52.358Z,41.75
2022-12-07T13:19:57.184Z,43.19
2022-12-07T13:21:09.844Z,40.80
2022-12-07T13:22:35.053Z,41.88
2022-12-07T13:23:51.036Z,41.81
2022-12-07T13:25:01.361Z,42.50
2022-12-07T13:26:18.295Z,41.31
2022-12-07T13:27:24.065Z,41.81
2022-12-07T13:28:31.058Z,44.00
2022-12-07T13:29:37.940Z,41.75
2022-12-07T13:30:53.981Z,44.06
2022-12-07T13:31:59.497Z,40.63
2022-12-07T13:33:05.103Z,43.53
2022-12-07T13:34:34.465Z,41.53
2022-12-07T13:35:39.308Z,44.13
2022-12-07T13:36:45.532Z,41.63
2022-12-07T13:37:49.626Z,43.53
2022-12-07T13:39:02.352Z,42.56
2022-12-07T13:40:23.973Z,42.93
2022-12-07T13:41:31.602Z,39.75
2022-12-07T13:42:36.923Z,42.69
2022-12-07T13:43:55.608Z,44.69
2022-12-07T13:45:05.181Z,41.87
2022-12-07T13:46:11.792Z,39.25
2022-12-07T13:47:21.574Z,43.56
2022-12-07T13:48:35.774Z,40.00
2022-12-07T13:49:42.741Z,42.38
2022-12-07T13:51:01.071Z,44.73
2022-12-07T13:52:25.129Z,40.31
2022-12-07T13:53:29.597Z,42.93
2022-12-07T13:54:33.679Z,42.25
2022-12-07T13:55:43.296Z,42.13
2022-12-07T13:56:53.578Z,43.13
2022-12-07T13:57:59.504Z,40.25
2022-12-07T13:59:05.273Z,43.50
2022-12-07T14:00:18.565Z,42.31
2022-12-07T14:01:23.409Z,43.19
2022-12-07T14:02:35.320Z,44.93
2022-12-07T14:03:38.624Z,42.31
2022-12-07T14:04:42.690Z,43.93
2022-12-07T14:05:47.128Z,42.93
2022-12-07T14:06:54.031Z,41.93
2022-12-07T14:08:00.869Z,43.63
2022-12-07T14:09:20.060Z,47.00
2022-12-07T14:10:42.602Z,46.53
2022-12-07T14:11:49.138Z,47.07
2022-12-07T14:12:53.265Z,47.25
2022-12-07T14:14:05.308Z,46.44
2022-12-07T14:15:18.010Z,47.87
2022-12-07T14:16:27.962Z,44.47
2022-12-07T14:17:32.093Z,44.31
2022-12-07T14:18:41.106Z,44.47
2022-12-07T14:19:59.581Z,45.50
2022-12-07T14:21:12.893Z,42.60
2022-12-07T14:22:32.057Z,47.38
2022-12-07T14:23:36.504Z,46.19
2022-12-07T14:24:47.100Z,39.67
2022-12-07T14:25:53.567Z,47.47
2022-12-07T14:26:57.852Z,43.44
2022-12-07T14:28:02.783Z,47.19
2022-12-07T14:29:24.879Z,47.06
2022-12-07T14:30:31.729Z,45.31
2022-12-07T14:31:35.917Z,47.13
2022-12-07T14:32:40.035Z,45.25
2022-12-07T14:33:48.900Z,43.44
2022-12-07T14:35:01.569Z,47.67
2022-12-07T14:36:07.274Z,44.13
2022-12-07T14:37:11.576Z,46.47
2022-12-07T14:38:15.549Z,44.44
2022-12-07T14:39:19.650Z,43.06
2022-12-07T14:40:26.465Z,46.80
2022-12-07T14:41:30.963Z,46.44
2022-12-07T14:42:36.720Z,44.94
2022-12-07T14:43:54.020Z,45.87
2022-12-07T14:44:46.391Z,46.63
2022-12-07T14:45:50.401Z,43.50
2022-12-07T14:50:14.508Z,45.06
2022-12-07T14:53:41.389Z,46.81
2022-12-07T14:54:45.344Z,46.40
2022-12-07T14:55:49.398Z,44.88
2022-12-07T14:56:53.332Z,42.20
2022-12-07T14:57:58.364Z,45.20
2022-12-07T14:59:02.290Z,41.81
2022-12-07T15:00:07.550Z,42.07
2022-12-07T15:01:11.798Z,45.12
2022-12-07T15:02:16.684Z,42.13
2022-12-07T15:03:22.803Z,45.87
2022-12-07T15:04:26.450Z,45.75
2022-12-07T15:05:30.558Z,44.73
2022-12-07T15:06:35.215Z,45.06
2022-12-07T15:07:39.272Z,43.27
2022-12-07T15:08:43.213Z,28.20
2022-12-07T15:09:47.666Z,45.63
2022-12-07T15:10:53.367Z,42.60
2022-12-07T15:11:59.273Z,42.60
2022-12-07T15:13:04.504Z,42.06
2022-12-07T15:14:09.302Z,42.73
2022-12-07T15:15:13.455Z,44.87
2022-12-07T15:16:20.561Z,39.88
2022-12-07T15:17:31.595Z,43.53
2022-12-07T15:18:31.819Z,44.47
2022-12-07T15:19:39.022Z,42.75
2022-12-07T15:20:45.363Z,38.80
2022-12-07T15:21:49.863Z,43.25
2022-12-07T15:22:54.147Z,41.63
2022-12-07T15:23:58.173Z,42.47
2022-12-07T15:25:23.345Z,37.13
2022-12-07T15:26:27.437Z,45.20
2022-12-07T15:27:32.025Z,41.37
2022-12-07T15:28:38.627Z,43.50
2022-12-07T15:29:42.740Z,44.07
2022-12-07T15:30:48.746Z,43.44
2022-12-07T15:31:56.844Z,38.19
2022-12-07T15:32:59.257Z,43.07
2022-12-07T15:34:04.078Z,41.81
2022-12-07T15:35:08.522Z,40.73
2022-12-07T15:36:24.235Z,39.19
2022-12-07T15:37:28.262Z,38.69
2022-12-07T15:39:05.309Z,45.19
2022-12-07T15:39:38.588Z,41.75
2022-12-07T15:40:42.838Z,39.20
2022-12-07T15:41:46.940Z,40.53
2022-12-07T15:42:50.997Z,37.73
2022-12-07T15:43:55.148Z,44.13
2022-12-07T15:44:59.394Z,39.94
2022-12-07T15:46:04.107Z,45.25
2022-12-07T15:47:08.114Z,39.94
2022-12-07T15:48:27.818Z,40.67
2022-12-07T15:49:20.255Z,36.56
2022-12-07T15:50:24.528Z,44.27
2022-12-07T15:51:29.054Z,42.25
2022-12-07T15:52:36.226Z,41.13
2022-12-07T15:53:39.193Z,42.00
2022-12-07T15:54:43.373Z,43.87
2022-12-07T15:55:47.411Z,41.50
2022-12-07T15:56:53.836Z,41.20
2022-12-07T15:57:57.768Z,40.27
2022-12-07T15:59:01.741Z,41.19
2022-12-07T16:00:08.471Z,40.33
2022-12-07T16:01:18.205Z,41.25
2022-12-07T16:02:22.546Z,41.00
2022-12-07T16:03:28.304Z,41.60
2022-12-07T16:04:32.343Z,40.44
2022-12-07T16:05:36.348Z,45.13
2022-12-07T16:06:41.374Z,42.62
2022-12-07T16:07:48.106Z,43.13
2022-12-07T16:08:52.219Z,41.73
2022-12-07T16:09:56.271Z,40.63
2022-12-07T16:11:00.409Z,42.87
2022-12-07T16:12:04.603Z,43.25
2022-12-07T16:13:08.617Z,41.80
2022-12-07T16:14:12.600Z,43.06
2022-12-07T16:15:22.820Z,39.38
2022-12-07T16:16:23.238Z,41.80
2022-12-07T16:17:27.366Z,41.27
2022-12-07T16:18:31.390Z,45.75
2022-12-07T16:19:37.055Z,40.93
2022-12-07T16:20:41.678Z,42.27
2022-12-07T16:21:45.617Z,40.12
2022-12-07T16:22:52.585Z,41.88
2022-12-07T16:24:01.061Z,43.81
2022-12-07T16:25:05.773Z,44.20
2022-12-07T16:26:21.786Z,40.00
2022-12-07T16:27:27.094Z,43.53
2022-12-07T16:28:31.115Z,41.69
2022-12-07T16:29:36.586Z,41.75
2022-12-07T16:30:40.695Z,37.94
2022-12-07T16:31:44.732Z,41.31
2022-12-07T16:32:48.768Z,42.50
2022-12-07T16:33:59.058Z,43.13
2022-12-07T16:35:03.664Z,39.47
2022-12-07T16:36:09.751Z,40.33
2022-12-07T16:37:13.741Z,41.44
2022-12-07T16:38:17.653Z,41.37
2022-12-07T16:39:21.645Z,37.75
2022-12-07T16:40:25.888Z,43.47
2022-12-07T16:41:29.980Z,39.93
2022-12-07T16:42:35.156Z,37.60
2022-12-07T16:43:39.449Z,38.69
2022-12-07T16:44:43.340Z,40.87
2022-12-07T16:45:49.141Z,37.81
2022-12-07T16:46:53.384Z,41.47
2022-12-07T16:47:57.650Z,37.00
2022-12-07T16:49:03.298Z,39.40
2022-12-07T16:50:08.442Z,40.60
2022-12-07T16:51:14.250Z,39.87
2022-12-07T16:52:20.960Z,39.81
2022-12-07T16:53:25.840Z,39.63
2022-12-07T16:54:29.859Z,39.53
2022-12-07T16:55:38.684Z,42.00
2022-12-07T16:56:42.811Z,42.13
2022-12-07T16:57:46.867Z,40.19
2022-12-07T16:58:50.922Z,36.75
2022-12-07T16:59:54.884Z,37.69
2022-12-07T17:01:02.047Z,40.12
2022-12-07T17:02:06.836Z,38.69
2022-12-07T17:03:15.050Z,42.80
2022-12-07T17:04:19.190Z,39.50
2022-12-07T17:05:23.380Z,41.53
2022-12-07T17:06:29.752Z,39.80
2022-12-07T17:07:33.744Z,42.06
2022-12-07T17:08:37.632Z,41.37
2022-12-07T17:09:41.686Z,43.60
2022-12-07T17:10:46.404Z,44.06
2022-12-07T17:11:50.499Z,39.13
2022-12-07T17:12:54.451Z,41.73
2022-12-07T17:13:59.123Z,38.31
2022-12-07T17:15:03.720Z,41.80
2022-12-07T17:16:08.407Z,40.25
2022-12-07T17:17:12.563Z,41.25
2022-12-07T17:18:16.558Z,36.44
2022-12-07T17:19:20.637Z,39.81
2022-12-07T17:20:27.506Z,37.69
2022-12-07T17:21:31.591Z,42.31
2022-12-07T17:22:35.849Z,41.56
2022-12-07T17:23:39.953Z,40.19
2022-12-07T17:24:43.947Z,39.06
2022-12-07T17:25:48.032Z,41.88
2022-12-07T17:27:05.615Z,44.81
2022-12-07T17:28:11.170Z,38.53
2022-12-07T17:29:17.599Z,41.88
2022-12-07T17:30:21.942Z,40.07
2022-12-07T17:31:26.494Z,40.69
2022-12-07T17:32:32.386Z,38.53
2022-12-07T17:33:36.956Z,40.75
2022-12-07T17:34:41.080Z,37.13
2022-12-07T17:35:45.174Z,39.38
2022-12-07T17:36:49.146Z,41.19
2022-12-07T17:37:53.299Z,37.81
2022-12-07T17:38:57.748Z,39.25
2022-12-07T17:40:01.946Z,40.50
2022-12-07T17:41:19.298Z,39.88
2022-12-07T17:42:23.297Z,41.13
2022-12-07T17:43:27.260Z,37.94
2022-12-07T17:44:31.749Z,38.19
2022-12-07T17:45:38.735Z,35.27
2022-12-07T17:46:43.014Z,39.88
2022-12-07T17:47:47.031Z,33.93
2022-12-07T17:49:03.887Z,36.38
2022-12-07T17:50:06.389Z,37.33
2022-12-07T17:51:16.463Z,37.56
2022-12-07T17:52:24.758Z,37.06
2022-12-07T17:53:49.684Z,41.19
2022-12-07T17:55:14.178Z,41.47
2022-12-07T17:56:28.652Z,37.53
2022-12-07T17:57:29.160Z,41.75
2022-12-07T17:58:33.043Z,36.50
2022-12-07T17:59:40.123Z,43.27
2022-12-07T18:00:45.735Z,40.50
2022-12-07T18:01:49.968Z,39.38
2022-12-07T18:02:58.501Z,39.63
2022-12-07T18:04:03.308Z,34.63
2022-12-07T18:05:11.832Z,40.44
2022-12-07T18:06:15.969Z,39.38
2022-12-07T18:07:20.163Z,36.13
2022-12-07T18:08:24.308Z,41.81
2022-12-07T18:09:30.036Z,39.94
2022-12-07T18:10:34.216Z,39.63
2022-12-07T18:11:38.810Z,33.31
2022-12-07T18:12:47.514Z,39.27
2022-12-07T18:13:48.827Z,38.50
2022-12-07T18:14:52.953Z,40.67
2022-12-07T18:15:58.495Z,38.88
2022-12-07T18:17:02.739Z,39.93
2022-12-07T18:18:06.890Z,41.13
2022-12-07T18:19:11.730Z,35.69
2022-12-07T18:20:16.528Z,38.81
2022-12-07T18:21:28.723Z,39.44
2022-12-07T18:22:32.722Z,42.40
2022-12-07T18:23:36.673Z,42.13
2022-12-07T18:24:40.631Z,38.56
2022-12-07T18:25:52.432Z,39.19
2022-12-07T18:26:56.849Z,38.33
2022-12-07T18:28:00.825Z,41.75
2022-12-07T18:29:06.423Z,41.93
2022-12-07T18:30:14.154Z,38.27
2022-12-07T18:31:18.846Z,41.47
2022-12-07T18:32:22.913Z,40.80
2022-12-07T18:33:27.116Z,39.81
2022-12-07T18:34:31.139Z,40.81
2022-12-07T18:35:35.106Z,40.56
2022-12-07T18:36:40.580Z,41.60
2022-12-07T18:37:44.549Z,41.80
2022-12-07T18:38:48.546Z,42.31
2022-12-07T18:39:52.463Z,39.93
2022-12-07T18:40:57.343Z,38.75
2022-12-07T18:42:01.722Z,43.67
2022-12-07T18:43:06.251Z,40.60
2022-12-07T18:44:13.363Z,44.25
2022-12-07T18:45:17.675Z,46.47
2022-12-07T18:46:23.358Z,43.00
2022-12-07T18:47:34.452Z,42.47
2022-12-07T18:48:38.668Z,44.13
2022-12-07T18:49:44.248Z,42.33
2022-12-07T18:50:51.349Z,42.93
2022-12-07T18:52:03.422Z,40.06
2022-12-07T18:53:07.524Z,40.94
2022-12-07T18:54:13.231Z,40.50
2022-12-07T18:55:33.530Z,37.63
2022-12-07T18:56:27.800Z,43.13
2022-12-07T18:57:35.899Z,43.73
2022-12-07T18:58:40.627Z,42.19
2022-12-07T18:59:44.670Z,42.06
2022-12-07T19:01:16.269Z,43.38
2022-12-07T19:04:00.393Z,44.13
2022-12-07T19:05:49.372Z,41.80
2022-12-07T19:18:23.366Z,43.19
2022-12-07T19:19:33.182Z,41.75
2022-12-07T19:20:38.328Z,42.50
2022-12-07T19:21:42.251Z,46.13
2022-12-07T19:22:46.310Z,43.63
2022-12-07T19:23:52.914Z,43.44
2022-12-07T19:24:56.992Z,41.56
2022-12-07T19:26:01.042Z,42.13
2022-12-07T19:27:09.569Z,43.13
2022-12-07T19:28:13.540Z,41.75
2022-12-07T19:29:19.521Z,39.50
2022-12-07T19:30:23.541Z,42.62
2022-12-07T19:31:28.017Z,43.87
2022-12-07T19:32:38.574Z,46.07
2022-12-07T19:33:42.829Z,39.53
2022-12-07T19:34:47.951Z,46.53
2022-12-07T19:35:52.118Z,44.07
2022-12-07T19:37:01.419Z,43.25
2022-12-07T19:38:09.819Z,42.60
2022-12-07T19:39:15.462Z,38.07
2022-12-07T19:40:30.032Z,40.25
2022-12-07T19:41:38.441Z,45.93